N734PX YMML-YMML

Flight info

Callsign N734PX
Flight time 0h 28m
Altitude 1700
Route TRAFFIC PATTERNS
Aircraft DA40/L-C/L

Departure

Time 2026-05-08 05:57
Airport Melbourne Airport (YMML)

Arrival

Time 2026-05-08 06:25
Airport Melbourne Airport (YMML)
Time Latitude Longitude Altitude Speed Heading
2026-05-08 05:28 -37.67565 144.84435 351 ft 0 kts 82°
2026-05-08 05:36 -37.67565 144.84434 351 ft 0 kts 82°
2026-05-08 05:41 -37.67565 144.84433 351 ft 0 kts 82°
2026-05-08 05:45 -37.67565 144.84432 351 ft 0 kts 83°
2026-05-08 05:46 -37.67560 144.84448 355 ft 5 kts 11°
2026-05-08 05:47 -37.67540 144.84421 352 ft 0 kts 269°
2026-05-08 05:48 -37.67539 144.84395 358 ft 7 kts 278°
2026-05-08 05:48 -37.67497 144.84325 361 ft 14 kts 339°
2026-05-08 05:48 -37.67409 144.84308 357 ft 15 kts 351°
2026-05-08 05:49 -37.67285 144.84285 362 ft 20 kts 351°
2026-05-08 05:49 -37.67128 144.84257 364 ft 25 kts 353°
2026-05-08 05:49 -37.66944 144.84223 367 ft 28 kts 353°
2026-05-08 05:49 -37.66847 144.84204 369 ft 12 kts 349°
2026-05-08 05:50 -37.66763 144.84188 370 ft 12 kts 348°
2026-05-08 05:50 -37.66695 144.84244 367 ft 15 kts 82°
2026-05-08 05:50 -37.66685 144.84334 361 ft 6 kts 78°
2026-05-08 05:50 -37.66672 144.84449 354 ft 20 kts 82°
2026-05-08 05:51 -37.66649 144.84640 339 ft 15 kts 83°
2026-05-08 05:51 -37.66613 144.84784 332 ft 14 kts 40°
2026-05-08 05:51 -37.66524 144.84792 329 ft 16 kts 346°
2026-05-08 05:51 -37.66418 144.84778 326 ft 15 kts
2026-05-08 05:52 -37.66372 144.84781 326 ft 0 kts
2026-05-08 05:52 -37.66334 144.84782 326 ft 13 kts
2026-05-08 05:52 -37.66231 144.84760 328 ft 15 kts 299°
2026-05-08 05:53 -37.66221 144.84705 331 ft 0 kts 274°
2026-05-08 05:56 -37.66218 144.84658 334 ft 27 kts 274°
2026-05-08 05:56 -37.66188 144.84134 379 ft 84 kts 274°
2026-05-08 05:56 -37.66142 144.83326 578 ft 95 kts 274°
2026-05-08 05:56 -37.66092 144.82498 855 ft 95 kts 275°
2026-05-08 05:57 -37.66030 144.81672 1069 ft 93 kts 283°
2026-05-08 05:57 -37.65648 144.81093 1344 ft 86 kts 338°
2026-05-08 05:57 -37.65019 144.81094 1466 ft 101 kts
2026-05-08 05:57 -37.64373 144.81463 1482 ft 107 kts 42°
2026-05-08 05:58 -37.64092 144.82305 1398 ft 107 kts 92°
2026-05-08 05:58 -37.64194 144.83176 1396 ft 98 kts 100°
2026-05-08 05:58 -37.64343 144.84015 1363 ft 99 kts 105°
2026-05-08 05:58 -37.64537 144.84848 1357 ft 96 kts 107°
2026-05-08 05:59 -37.64748 144.85644 1377 ft 95 kts 110°
2026-05-08 05:59 -37.64966 144.86409 1410 ft 91 kts 110°
2026-05-08 05:59 -37.65167 144.87170 1403 ft 92 kts 108°
2026-05-08 05:59 -37.65288 144.87929 1400 ft 90 kts 62°
2026-05-08 06:00 -37.64934 144.88534 1425 ft 85 kts 92°
2026-05-08 06:00 -37.65366 144.88947 1417 ft 92 kts 193°
2026-05-08 06:00 -37.65804 144.88383 1247 ft 93 kts 234°
2026-05-08 06:00 -37.66130 144.87735 1076 ft 85 kts 245°
2026-05-08 06:01 -37.66303 144.87040 896 ft 80 kts 262°
2026-05-08 06:01 -37.66320 144.86352 684 ft 78 kts 273°
2026-05-08 06:01 -37.66284 144.85690 534 ft 72 kts 275°
2026-05-08 06:01 -37.66246 144.85081 412 ft 66 kts 274°
2026-05-08 06:02 -37.66211 144.84528 344 ft 59 kts 274°
2026-05-08 06:02 -37.66180 144.83995 382 ft 78 kts 274°
2026-05-08 06:02 -37.66128 144.83239 603 ft 89 kts 276°
2026-05-08 06:02 -37.66073 144.82466 906 ft 88 kts 273°
2026-05-08 06:03 -37.66011 144.81716 1228 ft 86 kts 285°
2026-05-08 06:03 -37.65611 144.81114 1426 ft 99 kts 333°
2026-05-08 06:03 -37.64901 144.81046 1487 ft 107 kts
2026-05-08 06:03 -37.64284 144.81285 1502 ft 88 kts 38°
2026-05-08 06:04 -37.64030 144.81923 1481 ft 82 kts 88°
2026-05-08 06:04 -37.64063 144.82665 1425 ft 89 kts 96°
2026-05-08 06:04 -37.64139 144.83464 1403 ft 94 kts 97°
2026-05-08 06:04 -37.64234 144.84282 1431 ft 95 kts 99°
2026-05-08 06:05 -37.64343 144.85132 1412 ft 101 kts 101°
2026-05-08 06:05 -37.64492 144.85993 1423 ft 102 kts 103°
2026-05-08 06:05 -37.64666 144.86824 1431 ft 91 kts 107°
2026-05-08 06:05 -37.65005 144.87439 1326 ft 87 kts 153°
2026-05-08 06:06 -37.65541 144.87499 1232 ft 74 kts 187°
2026-05-08 06:06 -37.66018 144.87413 1121 ft 66 kts 195°
2026-05-08 06:06 -37.66264 144.87197 1004 ft 67 kts 245°
2026-05-08 06:06 -37.66335 144.86594 798 ft 72 kts 275°
2026-05-08 06:07 -37.66287 144.85994 680 ft 64 kts 275°
2026-05-08 06:07 -37.66251 144.85424 504 ft 67 kts 292°
2026-05-08 06:07 -37.66228 144.84843 357 ft 64 kts 273°
2026-05-08 06:07 -37.66199 144.84331 353 ft 52 kts 274°
2026-05-08 06:08 -37.66170 144.83846 421 ft 69 kts 274°
2026-05-08 06:08 -37.66128 144.83163 623 ft 85 kts 275°
2026-05-08 06:08 -37.66096 144.82409 890 ft 87 kts 273°
2026-05-08 06:08 -37.65956 144.81677 1153 ft 92 kts 312°
2026-05-08 06:09 -37.65306 144.81535 1292 ft 106 kts
2026-05-08 06:09 -37.64667 144.81661 1257 ft 85 kts 12°
2026-05-08 06:09 -37.64140 144.81673 1200 ft 74 kts 324°
2026-05-08 06:09 -37.64007 144.81051 1270 ft 76 kts 275°
2026-05-08 06:10 -37.64035 144.80398 1360 ft 79 kts 260°
2026-05-08 06:10 -37.64129 144.79680 1404 ft 85 kts 261°
2026-05-08 06:10 -37.64228 144.78946 1395 ft 85 kts 261°
2026-05-08 06:10 -37.64324 144.78216 1384 ft 84 kts 263°
2026-05-08 06:11 -37.64056 144.77606 1367 ft 99 kts 343°
2026-05-08 06:11 -37.63552 144.78112 1452 ft 108 kts 85°
2026-05-08 06:11 -37.63609 144.79007 1419 ft 99 kts 98°
2026-05-08 06:11 -37.63726 144.79861 1332 ft 101 kts 101°
2026-05-08 06:12 -37.63875 144.80741 1229 ft 102 kts 102°
2026-05-08 06:12 -37.64015 144.81598 1201 ft 96 kts 103°
2026-05-08 06:12 -37.64160 144.82406 1174 ft 93 kts 103°
2026-05-08 06:12 -37.64319 144.83181 1160 ft 90 kts 107°
2026-05-08 06:13 -37.64501 144.83929 1141 ft 87 kts 102°
2026-05-08 06:13 -37.64650 144.84696 1198 ft 89 kts 106°
2026-05-08 06:13 -37.64815 144.85399 1170 ft 78 kts 107°
2026-05-08 06:13 -37.64982 144.86141 1316 ft 95 kts 105°
2026-05-08 06:14 -37.64949 144.86934 1445 ft 92 kts 57°
2026-05-08 06:14 -37.64403 144.87248 1429 ft 92 kts 348°
2026-05-08 06:14 -37.64020 144.86716 1387 ft 85 kts 271°
2026-05-08 06:14 -37.64401 144.86235 1264 ft 87 kts 182°
2026-05-08 06:15 -37.64847 144.86647 1260 ft 84 kts 109°
2026-05-08 06:15 -37.64696 144.87300 1281 ft 82 kts 36°
2026-05-08 06:15 -37.64180 144.87321 1319 ft 77 kts 323°
2026-05-08 06:15 -37.64013 144.86719 1315 ft 79 kts 255°
2026-05-08 06:16 -37.64411 144.86278 1310 ft 80 kts 189°
2026-05-08 06:16 -37.64894 144.86553 1293 ft 82 kts 123°
2026-05-08 06:16 -37.64862 144.87221 1294 ft 79 kts 50°
2026-05-08 06:16 -37.64373 144.87407 1320 ft 76 kts 340°
2026-05-08 06:17 -37.64328 144.86338 1315 ft 80 kts 209°
2026-05-08 06:17 -37.64863 144.86389 1297 ft 83 kts 144°
2026-05-08 06:17 -37.65085 144.87028 1292 ft 83 kts 84°
2026-05-08 06:18 -37.64739 144.87534 1255 ft 83 kts
2026-05-08 06:18 -37.64461 144.87093 1187 ft 69 kts 252°
2026-05-08 06:18 -37.64764 144.86689 1245 ft 69 kts 193°
2026-05-08 06:18 -37.65216 144.86966 1377 ft 81 kts 122°
2026-05-08 06:19 -37.65213 144.87648 1357 ft 79 kts 58°
2026-05-08 06:19 -37.64765 144.87927 1348 ft 76 kts 348°
2026-05-08 06:19 -37.64413 144.87463 1279 ft 79 kts 277°
2026-05-08 06:19 -37.64704 144.86957 1220 ft 82 kts 191°
2026-05-08 06:20 -37.65138 144.87308 1239 ft 77 kts 102°
2026-05-08 06:20 -37.64865 144.87816 1330 ft 83 kts 10°
2026-05-08 06:20 -37.64401 144.87483 1474 ft 82 kts 292°
2026-05-08 06:20 -37.64446 144.86773 1450 ft 82 kts 236°
2026-05-08 06:21 -37.64921 144.86567 1402 ft 76 kts 158°
2026-05-08 06:21 -37.65197 144.87072 1365 ft 72 kts 92°
2026-05-08 06:21 -37.64949 144.87592 1352 ft 75 kts 23°
2026-05-08 06:21 -37.64451 144.87485 1331 ft 77 kts 312°
2026-05-08 06:22 -37.64357 144.86859 1359 ft 75 kts 250°
2026-05-08 06:22 -37.64765 144.86495 1379 ft 82 kts 182°
2026-05-08 06:22 -37.65244 144.86828 1407 ft 82 kts 121°
2026-05-08 06:22 -37.65247 144.87491 1467 ft 78 kts 57°
2026-05-08 06:23 -37.64753 144.87696 1404 ft 86 kts 333°
2026-05-08 06:23 -37.64552 144.87098 1385 ft 74 kts 252°
2026-05-08 06:23 -37.64954 144.86789 1345 ft 69 kts 178°
2026-05-08 06:23 -37.65293 144.87153 1305 ft 73 kts 98°
2026-05-08 06:24 -37.65022 144.87563 1327 ft 77 kts 338°
2026-05-08 06:24 -37.65183 144.87119 1204 ft 75 kts 202°
2026-05-08 06:24 -37.65667 144.86921 1061 ft 70 kts 200°
2026-05-08 06:24 -37.66030 144.86562 911 ft 68 kts 230°
2026-05-08 06:25 -37.66187 144.85987 694 ft 69 kts 239°
2026-05-08 06:25 -37.66254 144.85398 504 ft 68 kts 254°
2026-05-08 06:25 -37.66227 144.84802 343 ft 67 kts 274°
2026-05-08 06:25 -37.66196 144.84291 356 ft 46 kts 275°
2026-05-08 06:26 -37.66218 144.84077 371 ft 13 kts 182°
2026-05-08 06:26 -37.66327 144.84107 366 ft 8 kts 169°
2026-05-08 06:26 -37.66332 144.84108 366 ft 0 kts 169°